Time;durP1;ratioP1;P1;durP2;ratioP2;P2;SDS_P1;SDS_P2;PMS_P1;PMS_P2;Temp;Humidity;BMP_temperature;BMP_pressure;BME280_temperature;BME280_humidity;BME280_pressure;Samples;Min_cycle;Max_cycle;Signal;HPM_P1;HPM_P2
2021/08/20 00:00:06;;;;;;;7.85;3.20;;;;;;;18.30;45.00;94973.63;5039374;28;20116;-79
2021/08/20 00:02:35;;;;;;;4.30;2.53;;;;;;;18.30;45.18;94971.00;5039035;28;20056;-78
2021/08/20 00:05:00;;;;;;;5.70;3.28;;;;;;;18.27;44.86;94968.94;5018821;28;20164;-78
2021/08/20 00:07:26;;;;;;;4.53;3.25;;;;;;;18.31;45.02;94969.94;5037921;28;20025;-79
2021/08/20 00:09:54;;;;;;;3.67;2.95;;;;;;;18.32;45.34;94970.72;5036055;28;20413;-78
2021/08/20 00:12:19;;;;;;;5.28;3.28;;;;;;;18.32;45.36;94965.47;5035913;28;20033;-79
2021/08/20 00:14:45;;;;;;;3.55;2.92;;;;;;;18.34;45.69;94977.28;5036488;28;20029;-79
2021/08/20 00:17:10;;;;;;;10.18;3.17;;;;;;;18.35;45.38;94970.94;5035103;28;20025;-79
2021/08/20 00:19:36;;;;;;;5.90;3.47;;;;;;;18.40;45.27;94967.50;5019614;28;20037;-78
2021/08/20 00:22:04;;;;;;;5.68;3.97;;;;;;;18.40;45.41;94968.28;5051262;22;20029;-79
2021/08/20 00:24:30;;;;;;;7.03;4.07;;;;;;;18.43;45.59;94966.94;5043428;22;20041;-78
2021/08/20 00:26:55;;;;;;;9.65;4.05;;;;;;;18.44;45.69;94971.94;5041127;28;20044;-78
2021/08/20 00:29:22;;;;;;;5.55;3.97;;;;;;;18.45;45.65;94965.59;5071445;28;20031;-78
2021/08/20 00:31:47;;;;;;;7.18;3.97;;;;;;;18.48;45.83;94975.59;5070524;28;20034;-77
2021/08/20 00:34:13;;;;;;;5.30;3.30;;;;;;;18.51;45.22;94975.03;5031171;28;20056;-80
2021/08/20 00:36:38;;;;;;;5.35;3.67;;;;;;;18.53;45.63;94975.53;5018257;28;20037;-78
2021/08/20 00:39:05;;;;;;;8.25;4.05;;;;;;;18.55;45.50;94983.19;5051455;28;20041;-79
2021/08/20 00:41:30;;;;;;;7.20;3.83;;;;;;;18.55;45.61;94977.91;5033780;28;20037;-79
2021/08/20 00:43:56;;;;;;;6.90;4.32;;;;;;;18.55;45.77;94975.28;5036379;28;20037;-79
2021/08/20 00:46:21;;;;;;;10.60;4.60;;;;;;;18.53;45.66;94970.25;5035329;28;20037;-79
2021/08/20 00:48:47;;;;;;;6.47;3.95;;;;;;;18.52;45.91;94968.69;5035523;28;20033;-79
2021/08/20 00:51:12;;;;;;;5.50;3.50;;;;;;;18.55;45.51;94962.09;5037098;28;20129;-78
2021/08/20 00:53:38;;;;;;;6.68;3.97;;;;;;;18.51;45.54;94972.38;5036800;28;20034;-78
2021/08/20 00:58:31;;;;;;;10.38;5.25;;;;;;;18.40;45.98;94968.28;5041550;22;20048;31
2021/08/20 01:00:57;;;;;;;12.32;6.15;;;;;;;18.39;45.98;94976.47;5015870;28;20481;-79
2021/08/20 01:03:22;;;;;;;8.02;5.20;;;;;;;18.37;45.90;94974.09;5015635;28;20216;-79
2021/08/20 01:05:51;;;;;;;6.32;4.97;;;;;;;18.37;46.01;94974.09;5016740;28;20041;-79
2021/08/20 01:08:17;;;;;;;16.02;5.40;;;;;;;18.37;45.53;94968.03;5016565;28;20030;-80
2021/08/20 01:10:43;;;;;;;15.85;4.72;;;;;;;18.34;45.92;94976.50;4999826;28;20052;-79
2021/08/20 01:13:08;;;;;;;5.82;4.65;;;;;;;18.29;46.12;94978.13;4999774;28;20033;-79
2021/08/20 01:15:34;;;;;;;7.60;3.97;;;;;;;18.30;46.27;94968.38;5015494;28;20119;-79
2021/08/20 01:17:59;;;;;;;11.85;3.88;;;;;;;18.25;46.46;94978.94;5015201;28;20216;-78
2021/08/20 01:20:25;;;;;;;14.05;4.43;;;;;;;18.22;46.83;94977.66;5019626;28;20086;-78
2021/08/20 01:22:50;;;;;;;6.60;3.97;;;;;;;18.18;46.92;94970.56;5029085;28;20038;-79
2021/08/20 01:25:15;;;;;;;7.15;4.72;;;;;;;18.15;46.94;94976.38;5029033;28;20042;-78
2021/08/20 01:27:41;;;;;;;9.35;5.82;;;;;;;18.13;46.43;94967.97;5027498;28;20026;-78
2021/08/20 01:30:07;;;;;;;17.42;3.80;;;;;;;18.11;46.82;94973.53;5029010;28;20035;-78
2021/08/20 01:32:32;;;;;;;9.15;4.43;;;;;;;18.06;47.07;94972.75;5039045;22;20030;-78
2021/08/20 01:34:58;;;;;;;7.78;3.83;;;;;;;18.01;46.97;94970.94;5073254;28;20059;-78
2021/08/20 01:37:23;;;;;;;6.53;3.83;;;;;;;17.99;47.09;94973.84;5062163;28;20491;-80
2021/08/20 01:39:49;;;;;;;5.00;4.07;;;;;;;17.93;47.27;94974.19;5057345;28;20484;-78
2021/08/20 01:42:14;;;;;;;10.07;4.72;;;;;;;17.94;47.23;94970.47;5005555;28;20039;-78
2021/08/20 01:44:41;;;;;;;7.25;4.20;;;;;;;17.94;47.35;94973.91;5021696;28;20094;-79
2021/08/20 01:47:10;;;;;;;12.95;3.83;;;;;;;17.91;46.98;94971.81;5037700;28;20064;-79
2021/08/20 01:49:35;;;;;;;11.35;4.15;;;;;;;17.88;47.34;94976.81;5020968;28;20036;-79
2021/08/20 01:52:00;;;;;;;8.70;3.78;;;;;;;17.86;47.26;94969.22;5036921;28;20032;-79
2021/08/20 01:54:26;;;;;;;10.73;4.32;;;;;;;17.79;47.37;94968.75;5051512;23;20041;-77
2021/08/20 01:56:53;;;;;;;9.68;3.80;;;;;;;17.73;47.22;94964.53;5054697;28;20033;-78
2021/08/20 01:59:18;;;;;;;11.68;3.67;;;;;;;17.77;47.65;94976.13;5054338;28;20056;-78
2021/08/20 02:01:44;;;;;;;6.95;3.88;;;;;;;17.75;48.01;94970.34;5055106;28;20106;-79
2021/08/20 02:04:09;;;;;;;10.50;3.97;;;;;;;17.72;48.15;94970.09;5037045;28;20497;-78
2021/08/20 02:06:34;;;;;;;7.90;4.40;;;;;;;17.71;48.13;94966.66;5053661;28;20553;-79
2021/08/20 02:09:00;;;;;;;9.73;4.32;;;;;;;17.66;48.13;94970.09;5054343;28;20033;-79
2021/08/20 02:11:26;;;;;;;7.20;3.72;;;;;;;17.65;48.41;94970.38;5053915;28;20029;-79
2021/08/20 02:13:51;;;;;;;6.82;3.90;;;;;;;17.59;48.53;94974.09;5036948;28;20563;-78
2021/08/20 02:16:16;;;;;;;15.23;4.40;;;;;;;17.57;48.70;94969.09;5054965;28;20037;-78
2021/08/20 02:18:42;;;;;;;10.05;4.40;;;;;;;17.57;48.93;94965.66;5054027;28;20032;-80
2021/08/20 02:21:07;;;;;;;7.30;4.25;;;;;;;17.56;48.77;94969.34;5053585;28;20092;-79
2021/08/20 02:23:35;;;;;;;13.35;4.50;;;;;;;17.55;48.62;94973.03;5053038;28;20415;-79
2021/08/20 02:26:00;;;;;;;21.45;4.75;;;;;;;17.54;48.73;94972.25;5036571;28;20044;-78
2021/08/20 02:28:26;;;;;;;9.98;3.60;;;;;;;17.54;48.44;94972.25;5052642;28;20037;-78
2021/08/20 02:30:55;;;;;;;9.57;4.20;;;;;;;17.52;48.65;94968.31;5035972;28;20065;-79
2021/08/20 02:33:20;;;;;;;10.65;4.25;;;;;;;17.44;48.93;94976.78;5035414;28;20084;-79
2021/08/20 02:35:46;;;;;;;5.57;3.83;;;;;;;17.44;48.89;94974.94;5058024;22;20037;-78
2021/08/20 02:38:11;;;;;;;12.48;3.95;;;;;;;17.45;49.13;94973.09;5053401;28;20043;-78
2021/08/20 02:40:37;;;;;;;7.70;4.07;;;;;;;17.47;49.17;94978.88;5053957;28;20040;-78
2021/08/20 02:43:02;;;;;;;10.60;3.72;;;;;;;17.47;48.73;94978.88;5053871;28;20416;-79
2021/08/20 02:45:28;;;;;;;8.40;3.67;;;;;;;17.43;48.97;94976.00;5052671;28;20037;-79
2021/08/20 02:47:54;;;;;;;10.18;3.67;;;;;;;17.37;49.32;94977.84;5035649;28;20029;-79
2021/08/20 02:50:19;;;;;;;5.88;3.80;;;;;;;17.37;49.34;94982.31;5035630;28;20095;-78
2021/08/20 02:52:45;;;;;;;14.95;4.32;;;;;;;17.38;49.41;94984.69;5054008;28;20021;-79
2021/08/20 02:55:11;;;;;;;14.80;5.03;;;;;;;17.45;49.35;94981.00;5052300;28;20744;-79
2021/08/20 02:57:36;;;;;;;13.90;4.40;;;;;;;17.57;48.94;94976.19;5053037;28;20028;-79
2021/08/20 03:00:02;;;;;;;10.23;3.85;;;;;;;17.53;49.24;94985.66;5036795;28;20106;-79
2021/08/20 03:02:28;;;;;;;8.93;4.07;;;;;;;17.56;49.29;94993.00;5054983;28;20036;-78
2021/08/20 03:04:53;;;;;;;9.25;6.55;;;;;;;17.50;49.26;94992.25;5035959;28;20048;-79
2021/08/20 03:07:19;;;;;;;11.23;5.18;;;;;;;17.40;49.53;94993.09;5052795;28;20043;-79
2021/08/20 03:09:44;;;;;;;12.18;4.32;;;;;;;17.33;49.63;94994.44;5036577;28;20067;-79
2021/08/20 03:12:10;;;;;;;11.32;4.15;;;;;;;17.35;49.09;94984.44;5054028;28;20092;-79
2021/08/20 03:14:35;;;;;;;10.13;4.25;;;;;;;17.28;49.58;94984.75;5052821;22;20547;-79
2021/08/20 03:17:01;;;;;;;15.70;5.32;;;;;;;17.29;49.81;94986.31;5034323;28;20030;-79
2021/08/20 03:19:26;;;;;;;18.30;4.60;;;;;;;17.28;49.97;94990.00;5034302;28;20365;-78
2021/08/20 03:21:51;;;;;;;20.23;5.07;;;;;;;17.29;50.03;94990.78;5033436;28;20087;-78
2021/08/20 03:24:17;;;;;;;17.23;4.68;;;;;;;17.27;50.17;94987.66;5035240;28;20056;-78
2021/08/20 03:26:42;;;;;;;19.17;4.88;;;;;;;17.24;50.43;94990.78;5056378;23;20428;-78
2021/08/20 03:29:08;;;;;;;16.02;4.75;;;;;;;17.21;50.39;94988.69;5062706;28;20055;-78
2021/08/20 03:31:34;;;;;;;30.70;4.50;;;;;;;17.22;50.37;94998.16;5057472;28;20033;-79
2021/08/20 03:33:59;;;;;;;9.50;4.32;;;;;;;17.21;50.47;94999.22;5051760;28;20106;-79
2021/08/20 03:36:25;;;;;;;14.68;4.20;;;;;;;17.20;50.70;94995.81;5038691;23;20041;-78
2021/08/20 03:38:51;;;;;;;15.27;4.97;;;;;;;17.23;50.94;95004.97;5052854;28;20492;-78
2021/08/20 03:41:17;;;;;;;12.80;5.03;;;;;;;17.22;50.95;95011.28;5053282;28;20057;-78
2021/08/20 03:43:43;;;;;;;34.28;5.53;;;;;;;17.22;50.88;95006.81;5054279;28;20108;-79
2021/08/20 03:46:09;;;;;;;16.45;5.03;;;;;;;17.16;50.99;95007.91;5035568;28;20045;-78
2021/08/20 03:48:35;;;;;;;28.45;6.88;;;;;;;17.23;50.82;95012.88;5050203;28;20033;-79
2021/08/20 03:51:01;;;;;;;22.67;7.15;;;;;;;17.25;51.14;95016.81;5053293;28;20040;-78
2021/08/20 03:53:26;;;;;;;18.63;5.00;;;;;;;17.28;50.95;95011.03;5053403;28;20036;-78
2021/08/20 03:55:52;;;;;;;21.45;5.50;;;;;;;17.32;50.46;95019.16;5051368;28;20037;-78
2021/08/20 03:58:17;;;;;;;11.80;4.57;;;;;;;17.33;50.56;95032.03;5053704;28;20060;-79
2021/08/20 04:00:51;;;;;;;14.00;5.35;;;;;;;17.38;50.71;95026.75;5053883;28;20043;-79
2021/08/20 04:03:16;;;;;;;16.52;4.85;;;;;;;17.50;50.48;95023.81;5053285;28;20075;-78
2021/08/20 04:05:42;;;;;;;25.50;5.28;;;;;;;17.61;50.17;95029.81;5053256;28;20041;-78
2021/08/20 04:08:07;;;;;;;23.63;6.68;;;;;;;17.84;49.85;95034.47;5044771;22;20409;-79
2021/08/20 04:10:32;;;;;;;26.80;6.18;;;;;;;18.16;49.02;95023.47;5034273;28;20041;-79
2021/08/20 04:12:58;;;;;;;17.83;5.80;;;;;;;18.67;47.87;95032.88;5032418;28;20092;-79
2021/08/20 04:15:23;;;;;;;28.45;6.22;;;;;;;19.43;46.25;95026.81;5032306;28;20045;-79
2021/08/20 04:17:49;;;;;;;16.63;5.80;;;;;;;20.18;44.53;95029.56;5030472;28;20120;-79
2021/08/20 04:20:14;;;;;;;24.40;6.07;;;;;;;20.94;42.44;95023.06;5035364;28;20034;-79
2021/08/20 04:22:41;;;;;;;16.45;5.88;;;;;;;21.89;40.40;95028.69;5035075;28;20052;-79
2021/08/20 04:25:07;;;;;;;20.38;5.43;;;;;;;22.93;38.64;95016.22;5034222;28;20064;-79
2021/08/20 04:27:32;;;;;;;26.45;5.93;;;;;;;23.93;36.51;95022.53;5016047;28;20540;-79
2021/08/20 04:29:57;;;;;;;28.55;5.63;;;;;;;24.85;34.53;95020.47;5034694;28;20038;-79
2021/08/20 04:32:23;;;;;;;17.23;5.97;;;;;;;25.75;32.83;95034.75;5030846;28;20021;-78
2021/08/20 04:34:48;;;;;;;18.38;4.93;;;;;;;26.60;30.85;95028.03;5030699;28;20417;-78
2021/08/20 04:37:14;;;;;;;16.38;4.60;;;;;;;27.52;29.72;95029.59;4995582;28;20449;-78
2021/08/20 04:39:39;;;;;;;;;;;;;;;28.35;27.97;95039.00;5033361;28;20034;-78
2021/08/20 04:42:04;;;;;;;13.53;4.23;;;;;;;29.01;26.60;95038.53;5034995;28;19924;-78
2021/08/20 04:44:30;;;;;;;20.65;6.18;;;;;;;29.77;26.10;95047.25;5040012;28;20316;-77
2021/08/20 04:46:55;;;;;;;14.35;5.78;;;;;;;30.73;24.49;95052.81;5041562;28;20025;-78
2021/08/20 04:49:21;;;;;;;12.65;4.70;;;;;;;31.53;23.89;95050.41;5036203;28;20056;-79
2021/08/20 04:51:46;;;;;;;11.65;4.40;;;;;;;32.58;21.84;95052.34;5017518;28;20851;-78
2021/08/20 04:54:12;;;;;;;10.63;4.50;;;;;;;33.51;20.53;95056.03;5035294;28;20393;-78
2021/08/20 04:56:37;;;;;;;24.27;4.63;;;;;;;34.34;19.59;95050.84;5035964;28;20421;-79
2021/08/20 04:59:03;;;;;;;10.52;4.50;;;;;;;35.04;19.17;95052.31;5034438;28;20075;-79
2021/08/20 05:01:28;;;;;;;13.38;4.75;;;;;;;35.65;18.19;95041.59;5019826;28;20458;-79
2021/08/20 05:03:54;;;;;;;12.00;5.00;;;;;;;36.32;17.86;95044.25;5036360;28;20033;-78
2021/08/20 05:06:19;;;;;;;14.18;4.88;;;;;;;37.06;17.52;95044.31;5035881;28;20038;-79
2021/08/20 05:08:44;;;;;;;16.50;4.22;;;;;;;37.59;16.54;95045.91;5036049;28;20044;-78
2021/08/20 05:11:10;;;;;;;12.88;3.92;;;;;;;38.38;15.50;95050.25;5019469;28;20038;-78
2021/08/20 05:13:36;;;;;;;13.68;4.35;;;;;;;39.05;15.12;95047.88;5020465;28;20022;-79
2021/08/20 05:16:01;;;;;;;8.50;3.60;;;;;;;39.58;14.73;95046.41;5037902;28;20029;-78
2021/08/20 05:18:27;;;;;;;11.82;4.10;;;;;;;40.19;14.33;95043.41;5036799;28;20037;-79
2021/08/20 05:20:52;;;;;;;11.98;4.20;;;;;;;40.70;13.23;95044.03;5018685;28;20140;-79
2021/08/20 05:23:18;;;;;;;10.55;3.58;;;;;;;41.11;12.96;95045.50;5035486;28;20425;-79
2021/08/20 05:25:46;;;;;;;16.50;3.92;;;;;;;41.11;12.88;95045.50;5037516;28;20523;-79
2021/08/20 05:28:12;;;;;;;13.02;3.85;;;;;;;41.38;12.40;95046.09;5037494;28;20033;-79
2021/08/20 05:30:38;;;;;;;9.68;4.20;;;;;;;41.77;12.83;95052.59;5041217;23;20037;-79
2021/08/20 05:33:03;;;;;;;8.32;4.20;;;;;;;42.30;12.41;95045.75;5037460;28;20076;-79
2021/08/20 05:35:29;;;;;;;10.95;4.00;;;;;;;42.75;11.80;95040.22;5037199;28;20056;-78
2021/08/20 05:37:54;;;;;;;9.57;3.83;;;;;;;43.37;11.36;95053.69;5021287;28;20041;-79
2021/08/20 05:40:20;;;;;;;26.05;4.00;;;;;;;43.96;11.07;95052.97;5038723;28;20034;-79
2021/08/20 05:42:46;;;;;;;10.07;4.18;;;;;;;44.49;10.55;95055.88;5004624;28;20075;-78
2021/08/20 05:45:11;;;;;;;6.18;3.50;;;;;;;44.72;10.55;95053.88;5035744;28;20048;-79
2021/08/20 05:47:37;;;;;;;12.98;4.22;;;;;;;44.51;10.74;95061.66;5035134;28;20041;-78
2021/08/20 05:50:34;;;;;;;12.43;4.22;;;;;;;44.49;10.64;95066.84;5036597;28;20412;-78
2021/08/20 05:52:59;;;;;;;8.13;3.92;;;;;;;45.19;10.60;95065.44;5016706;28;20578;-78
2021/08/20 05:55:25;;;;;;;8.82;3.40;;;;;;;45.68;10.04;95067.47;5017990;28;20034;-77
2021/08/20 05:57:51;;;;;;;9.15;3.70;;;;;;;46.23;9.49;95056.59;5017688;28;20037;-78
2021/08/20 06:00:17;;;;;;;5.72;4.00;;;;;;;46.59;9.25;95049.56;5000665;28;20037;-77
2021/08/20 06:02:43;;;;;;;20.45;4.45;;;;;;;46.63;9.25;95055.66;5017129;28;20034;-78
2021/08/20 06:05:09;;;;;;;8.02;3.85;;;;;;;46.65;9.35;95047.69;5017996;28;20038;-78
2021/08/20 06:07:35;;;;;;;15.63;4.43;;;;;;;46.63;9.57;95055.66;5016064;28;20037;-79
2021/08/20 06:10:00;;;;;;;16.98;4.38;;;;;;;46.50;9.52;95049.56;5017712;28;20034;-77
2021/08/20 06:12:27;;;;;;;8.55;4.50;;;;;;;46.06;9.55;95053.38;5019838;28;20038;-78
2021/08/20 06:14:53;;;;;;;13.35;4.25;;;;;;;45.59;10.04;95053.72;5017464;28;20033;-77
2021/08/20 06:17:18;;;;;;;10.02;4.30;;;;;;;44.68;10.70;95045.78;5016756;28;20026;-78
2021/08/20 06:19:44;;;;;;;7.20;4.63;;;;;;;43.48;11.56;95047.88;5018687;28;20033;-78
2021/08/20 06:22:09;;;;;;;12.38;4.88;;;;;;;42.62;12.15;95044.13;5002371;28;20410;-78
2021/08/20 06:24:35;;;;;;;13.50;4.60;;;;;;;41.49;13.12;95030.19;5021714;28;20563;-77
2021/08/20 06:27:00;;;;;;;12.68;4.88;;;;;;;40.85;13.91;95023.47;5004842;28;20042;-77
2021/08/20 06:29:25;;;;;;;12.52;4.95;;;;;;;40.29;14.16;95037.00;5020325;28;20037;-77
2021/08/20 06:31:55;;;;;;;14.98;4.93;;;;;;;39.59;15.08;95039.78;5002931;28;20077;-79
2021/08/20 06:34:20;;;;;;;17.00;5.05;;;;;;;39.29;15.41;95043.31;5016847;28;20049;-79
2021/08/20 06:36:46;;;;;;;14.35;5.18;;;;;;;38.80;15.59;95045.53;5015641;28;20038;-79
2021/08/20 06:39:11;;;;;;;6.65;5.13;;;;;;;38.35;15.85;95042.16;5017003;28;20018;-79
2021/08/20 06:41:37;;;;;;;16.05;5.63;;;;;;;37.87;17.00;95045.69;5014240;28;20029;-79
2021/08/20 06:44:02;;;;;;;11.43;5.13;;;;;;;37.29;16.90;95049.25;5017450;28;20026;-78
2021/08/20 06:46:28;;;;;;;10.32;5.80;;;;;;;36.83;17.71;95040.19;5017561;28;20033;-79
2021/08/20 06:48:54;;;;;;;14.52;5.03;;;;;;;36.50;18.24;95043.41;5017117;28;20030;-81
2021/08/20 06:51:19;;;;;;;12.88;5.55;;;;;;;36.04;19.01;95041.56;5015758;28;20037;-79
2021/08/20 06:53:44;;;;;;;20.30;4.93;;;;;;;35.75;19.44;95038.88;5017808;28;20040;-80
2021/08/20 06:56:10;;;;;;;12.13;5.70;;;;;;;35.55;19.65;95042.38;5017563;28;20498;-80
2021/08/20 06:58:35;;;;;;;14.20;5.82;;;;;;;34.99;20.50;95043.81;4983536;28;20022;-81
2021/08/20 07:01:01;;;;;;;8.23;4.68;;;;;;;34.94;20.74;95039.53;5016871;28;20076;-80
2021/08/20 07:03:26;;;;;;;10.82;5.03;;;;;;;34.46;21.64;95039.75;5014510;28;20111;-80
2021/08/20 07:06:07;;;;;;;6.32;4.65;;;;;;;34.20;22.34;95035.34;5016837;28;20037;-80
2021/08/20 07:08:32;;;;;;;16.98;4.45;;;;;;;33.87;22.28;95041.72;5017635;28;20026;-80
2021/08/20 07:10:58;;;;;;;9.85;4.68;;;;;;;33.61;22.70;95036.47;5017033;28;20037;-80
2021/08/20 07:13:23;;;;;;;11.40;4.60;;;;;;;33.47;23.16;95039.06;5016875;28;20038;-80
2021/08/20 07:15:49;;;;;;;17.75;4.78;;;;;;;33.34;23.23;95043.94;5017407;28;20034;-80
2021/08/20 07:18:14;;;;;;;9.60;4.53;;;;;;;33.32;23.30;95041.59;5016813;28;20038;-80
2021/08/20 07:20:40;;;;;;;9.43;4.93;;;;;;;33.12;23.63;95032.16;5015769;28;20068;-80
2021/08/20 07:23:08;;;;;;;7.50;4.43;;;;;;;32.78;23.96;95040.28;5015903;28;20041;-80
2021/08/20 07:25:34;;;;;;;9.18;4.97;;;;;;;31.94;25.42;95035.34;5015751;28;20093;-80
2021/08/20 07:27:59;;;;;;;5.32;4.38;;;;;;;31.63;26.02;95034.47;5016482;28;20034;-80
2021/08/20 07:30:25;;;;;;;7.50;4.30;;;;;;;31.45;26.05;95040.69;5016077;28;20034;-80
2021/08/20 07:32:50;;;;;;;11.00;4.38;;;;;;;31.57;26.28;95037.84;5016231;28;20041;-80
2021/08/20 07:35:16;;;;;;;12.88;4.75;;;;;;;31.62;26.32;95037.50;5015474;28;20034;-79
2021/08/20 07:37:41;;;;;;;11.32;4.40;;;;;;;31.80;26.13;95035.13;5016387;28;20097;-80
2021/08/20 07:40:08;;;;;;;8.75;4.35;;;;;;;31.95;26.18;95031.50;5014900;28;20030;-80
2021/08/20 07:42:33;;;;;;;25.85;4.30;;;;;;;31.87;25.71;95044.06;4998608;28;20034;-80
2021/08/20 07:44:59;;;;;;;8.35;4.32;;;;;;;31.35;26.66;95025.94;4998660;28;20069;-79
2021/08/20 07:47:24;;;;;;;3.85;3.42;;;;;;;31.34;26.69;95022.47;4999120;28;20036;-80
2021/08/20 07:49:50;;;;;;;12.30;4.00;;;;;;;31.35;26.74;95023.25;5017098;28;20049;-78
2021/08/20 07:52:15;;;;;;;10.15;3.92;;;;;;;31.36;27.05;95019.44;5019284;28;20053;-80
2021/08/20 07:54:43;;;;;;;8.27;3.75;;;;;;;31.37;26.75;95023.66;5015588;28;20034;-80
2021/08/20 07:57:09;;;;;;;6.53;3.88;;;;;;;31.40;27.04;95016.78;5016436;28;20128;-80
2021/08/20 07:59:34;;;;;;;8.27;3.45;;;;;;;31.21;27.42;95020.31;5016692;28;20084;-80
2021/08/20 08:02:00;;;;;;;8.23;3.60;;;;;;;31.23;26.97;95018.06;5016400;28;20037;-80
2021/08/20 08:04:25;;;;;;;4.72;4.32;;;;;;;31.27;27.17;95019.69;5015124;28;20038;-80
2021/08/20 08:06:51;;;;;;;10.00;3.90;;;;;;;31.20;27.30;95011.50;5015858;28;20045;-80
2021/08/20 08:09:16;;;;;;;5.65;3.75;;;;;;;31.07;27.86;95021.59;5017555;28;20030;-79
2021/08/20 08:11:42;;;;;;;14.68;3.80;;;;;;;30.40;28.55;95034.50;5016538;28;20030;-79
2021/08/20 08:14:07;;;;;;;7.75;4.07;;;;;;;30.02;29.19;95040.56;5022756;28;20037;-79
2021/08/20 08:16:37;;;;;;;6.88;4.35;;;;;;;29.66;30.05;95030.97;5003826;28;20041;-79
2021/08/20 08:19:04;;;;;;;7.80;4.53;;;;;;;29.64;30.40;95033.22;5016314;28;20096;-80
2021/08/20 08:21:29;;;;;;;6.25;4.00;;;;;;;29.89;30.02;95026.50;5016126;28;20042;-80
2021/08/20 08:23:55;;;;;;;19.10;4.25;;;;;;;29.71;29.73;95025.31;5019371;28;20121;-80
2021/08/20 08:26:23;;;;;;;6.25;3.38;;;;;;;29.76;30.14;95025.03;5001654;28;20069;-81
2021/08/20 08:28:48;;;;;;;11.98;4.22;;;;;;;29.72;30.05;95018.84;5019572;28;20128;-80
2021/08/20 08:31:14;;;;;;;5.43;3.83;;;;;;;29.25;30.96;95016.94;5018979;28;20041;-79
2021/08/20 08:33:39;;;;;;;14.85;4.22;;;;;;;29.10;31.29;95020.38;5018498;28;20049;-79
2021/08/20 08:36:05;;;;;;;7.35;4.20;;;;;;;29.04;31.14;95027.13;5001550;28;20038;-80
2021/08/20 08:38:30;;;;;;;4.95;4.28;;;;;;;28.96;31.12;95026.16;5001743;28;20057;-80
2021/08/20 08:40:57;;;;;;;4.38;3.92;;;;;;;28.98;31.65;95017.78;5018885;28;20405;-80
2021/08/20 08:43:22;;;;;;;8.90;4.20;;;;;;;28.82;31.58;95014.28;5002174;28;20034;-79
2021/08/20 08:45:48;;;;;;;8.05;4.10;;;;;;;28.66;32.31;95009.66;4986541;28;20045;-80
2021/08/20 08:48:17;;;;;;;6.35;4.10;;;;;;;28.81;31.83;95012.72;5017628;28;20041;-78
2021/08/20 08:50:43;;;;;;;5.40;4.25;;;;;;;28.90;31.33;95008.78;5028251;28;20069;-79
2021/08/20 08:53:09;;;;;;;7.68;4.10;;;;;;;29.14;30.92;95009.78;5032070;28;20046;-77
2021/08/20 08:55:34;;;;;;;8.88;4.18;;;;;;;29.29;31.31;95007.09;5031302;28;20379;-78
2021/08/20 08:58:00;;;;;;;10.38;3.97;;;;;;;29.35;31.05;94998.78;5021353;28;20037;-79
2021/08/20 09:00:33;;;;;;;10.48;3.67;;;;;;;29.44;31.09;95002.84;5001308;28;20040;-80
2021/08/20 09:02:59;;;;;;;11.13;4.43;;;;;;;29.36;30.85;95017.19;5018067;28;20536;-79
2021/08/20 09:05:25;;;;;;;10.10;4.53;;;;;;;29.28;30.92;95010.88;5017544;28;20030;-80
2021/08/20 09:07:52;;;;;;;7.32;3.80;;;;;;;29.41;30.80;95005.44;5001361;28;20492;-80
2021/08/20 09:10:18;;;;;;;5.95;4.10;;;;;;;29.56;30.71;95004.69;5001660;28;20087;-78
2021/08/20 09:12:49;;;;;;;8.52;4.90;;;;;;;29.53;30.77;95000.00;5018184;28;20038;-80
2021/08/20 09:15:15;;;;;;;8.23;4.40;;;;;;;29.55;30.34;95003.13;5033595;28;20099;-80
2021/08/20 09:17:41;;;;;;;6.43;4.65;;;;;;;29.43;30.56;94987.09;4984774;28;20034;-80
2021/08/20 09:20:20;;;;;;;14.05;4.45;;;;;;;29.43;30.47;94995.91;5001631;28;20030;-80
2021/08/20 09:22:46;;;;;;;15.23;4.32;;;;;;;29.39;30.77;94988.94;4985691;28;20053;-80
2021/08/20 09:25:38;;;;;;;6.38;4.32;;;;;;;29.49;31.13;94989.22;5017786;28;20100;-79
2021/08/20 09:28:34;;;;;;;6.15;4.70;;;;;;;29.35;30.79;94988.06;5018685;28;20067;-79
2021/08/20 09:30:59;;;;;;;11.63;4.63;;;;;;;28.84;31.15;94980.69;5017473;28;20044;-80
2021/08/20 09:33:27;;;;;;;6.82;4.80;;;;;;;28.59;31.84;94985.38;5017679;28;20033;-80
2021/08/20 09:36:01;;;;;;;7.18;4.43;;;;;;;28.44;31.86;94978.09;5016270;28;20041;-80
2021/08/20 09:38:28;;;;;;;13.40;4.80;;;;;;;28.54;32.04;94979.50;5018627;28;20040;-80
2021/08/20 09:41:00;;;;;;;5.50;4.47;;;;;;;28.58;31.64;94973.13;5000451;28;20525;-80
2021/08/20 09:43:33;;;;;;;5.05;4.40;;;;;;;28.63;32.11;94975.53;5017259;28;20026;-79
2021/08/20 09:45:59;;;;;;;6.85;4.45;;;;;;;28.75;32.04;94976.59;5002151;28;20049;-80
2021/08/20 09:48:48;;;;;;;6.05;4.47;;;;;;;28.70;31.61;94970.41;5018433;28;20034;-80
2021/08/20 09:51:37;;;;;;;10.07;4.70;;;;;;;28.81;31.69;94965.31;5018452;28;20038;-79
2021/08/20 09:54:15;;;;;;;7.68;4.68;;;;;;;28.94;31.55;94971.38;5024873;28;20068;-78
2021/08/20 09:56:41;;;;;;;7.93;4.50;;;;;;;28.67;32.16;94964.97;5025479;28;20042;-79
2021/08/20 09:59:08;;;;;;;11.18;4.53;;;;;;;28.78;31.66;94970.56;5024951;28;20481;-80
2021/08/20 10:01:35;;;;;;;6.75;4.75;;;;;;;28.65;31.90;94973.34;5026538;28;20038;-79
2021/08/20 10:04:03;;;;;;;5.13;4.63;;;;;;;28.63;32.29;94964.84;5029251;28;20037;-78
2021/08/20 10:06:34;;;;;;;11.80;4.70;;;;;;;28.63;31.70;94962.16;5030730;28;20045;-79
2021/08/20 10:09:02;;;;;;;8.50;4.77;;;;;;;28.67;31.79;94965.72;5031300;28;20268;-77
2021/08/20 10:11:27;;;;;;;5.68;4.72;;;;;;;28.61;32.12;94964.41;5029785;28;20034;-79
2021/08/20 10:13:53;;;;;;;15.63;5.10;;;;;;;28.53;32.03;94969.94;5029269;28;20037;-77
2021/08/20 10:16:19;;;;;;;7.07;4.43;;;;;;;28.61;32.10;94961.72;5024727;28;20065;-79
2021/08/20 10:18:45;;;;;;;6.55;4.85;;;;;;;28.56;32.47;94953.97;5009696;28;20042;-79
2021/08/20 10:21:11;;;;;;;7.72;5.75;;;;;;;28.09;33.07;94959.16;4994684;28;20042;-79
2021/08/20 10:23:36;;;;;;;11.43;5.35;;;;;;;27.94;33.55;94962.53;5036298;22;20124;-79
2021/08/20 10:26:30;;;;;;;14.55;5.05;;;;;;;27.99;32.83;94957.75;5059591;28;20509;-79
2021/08/20 10:28:56;;;;;;;7.82;4.65;;;;;;;28.02;33.18;94956.28;5061065;28;20769;-78
2021/08/20 10:31:22;;;;;;;5.82;5.00;;;;;;;27.94;33.28;94955.28;5059848;28;20064;-79
2021/08/20 10:33:48;;;;;;;9.10;5.40;;;;;;;28.07;33.28;94951.47;5057467;28;20043;-79
2021/08/20 10:36:13;;;;;;;7.75;5.57;;;;;;;28.22;33.36;94944.63;5053665;28;20041;-79
2021/08/20 10:38:38;;;;;;;7.72;5.22;;;;;;;28.26;32.62;94939.38;5073992;28;20033;-79
2021/08/20 10:41:13;;;;;;;7.20;4.95;;;;;;;28.20;32.68;94944.19;5059606;28;20037;-80
2021/08/20 10:44:01;;;;;;;8.10;5.47;;;;;;;28.14;33.18;94944.75;5058089;28;20041;-79
2021/08/20 10:46:32;;;;;;;6.32;5.38;;;;;;;28.06;32.70;94936.53;5057658;28;20036;-79
2021/08/20 10:51:51;;;;;;;11.32;5.18;;;;;;;27.99;32.73;94920.31;5057833;28;20041;-79
2021/08/20 10:54:26;;;;;;;12.82;5.00;;;;;;;28.14;32.90;94916.13;5059006;28;20085;-79
2021/08/20 10:56:52;;;;;;;11.63;5.60;;;;;;;28.31;32.65;94907.84;5040443;28;20045;-79
2021/08/20 10:59:35;;;;;;;10.38;5.47;;;;;;;28.51;32.96;94927.47;5055796;28;20090;-79
2021/08/20 11:02:19;;;;;;;7.28;5.70;;;;;;;28.45;32.26;94909.31;5057295;28;20037;-79
2021/08/20 11:05:04;;;;;;;8.40;5.30;;;;;;;28.52;32.56;94926.34;5058216;28;20079;-77
2021/08/20 11:07:38;;;;;;;9.02;5.07;;;;;;;28.59;32.52;94913.13;5073228;28;20033;-79
2021/08/20 11:10:10;;;;;;;16.00;5.20;;;;;;;28.73;32.66;94917.31;5057406;28;20025;-79
2021/08/20 11:12:39;;;;;;;5.78;5.18;;;;;;;28.82;32.18;94908.00;5056269;28;20105;-79
2021/08/20 11:15:17;;;;;;;6.47;5.47;;;;;;;28.89;31.73;94907.41;5056915;28;20472;-79
2021/08/20 11:17:59;;;;;;;12.40;5.07;;;;;;;28.91;31.91;94911.28;5055524;28;20029;-79
2021/08/20 11:20:28;;;;;;;6.80;5.18;;;;;;;28.99;31.35;94915.72;5072130;28;20543;-80
2021/08/20 11:23:06;;;;;;;6.72;5.60;;;;;;;28.82;31.51;94907.22;5055689;28;20466;-80
2021/08/20 11:25:55;;;;;;;9.88;5.60;;;;;;;28.85;31.72;94907.31;5055412;28;20632;-80
2021/08/20 11:28:21;;;;;;;9.48;5.68;;;;;;;28.95;31.74;94895.31;5072427;28;20041;-80
2021/08/20 11:31:09;;;;;;;7.15;5.45;;;;;;;28.92;31.72;94896.00;5072060;28;20412;-80
2021/08/20 11:33:45;;;;;;;15.63;5.75;;;;;;;28.88;31.79;94887.13;5077888;22;20067;-80